createdAt,value
2019-04-06T00:00:16.435Z,95.70
2019-04-06T00:04:23.546Z,95.80
2019-04-06T00:08:30.746Z,95.90
2019-04-06T00:12:38.052Z,95.80
2019-04-06T00:16:45.131Z,95.80
2019-04-06T00:20:52.420Z,95.70
2019-04-06T00:24:59.718Z,95.90
2019-04-06T00:29:06.899Z,95.80
2019-04-06T00:33:15.898Z,95.90
2019-04-06T00:37:23.294Z,96.00
2019-04-06T00:41:31.475Z,96.00
2019-04-06T00:45:38.650Z,95.90
2019-04-06T00:49:46.121Z,96.00
2019-04-06T00:53:53.447Z,96.10
2019-04-06T00:58:00.569Z,96.00
2019-04-06T01:02:07.991Z,96.00
2019-04-06T01:06:15.215Z,96.10
2019-04-06T01:10:22.306Z,96.30
2019-04-06T01:14:29.430Z,96.40
2019-04-06T01:18:36.659Z,96.50
2019-04-06T01:22:43.738Z,96.50
2019-04-06T01:26:50.805Z,96.50
2019-04-06T01:30:57.880Z,96.70
2019-04-06T01:35:05.228Z,96.80
2019-04-06T01:39:12.352Z,96.90
2019-04-06T01:43:19.415Z,97.00
2019-04-06T01:47:26.631Z,97.00
2019-04-06T01:51:33.784Z,97.00
2019-04-06T01:55:41.152Z,97.00
2019-04-06T01:59:48.299Z,97.00
2019-04-06T02:03:55.381Z,97.30
2019-04-06T02:08:02.638Z,97.50
2019-04-06T02:12:09.958Z,97.30
2019-04-06T02:16:17.008Z,97.30
2019-04-06T02:20:24.308Z,97.20
2019-04-06T02:24:31.628Z,97.20
2019-04-06T02:28:38.685Z,97.20
2019-04-06T02:32:59.624Z,97.20
2019-04-06T02:37:25.306Z,97.00
2019-04-06T02:41:37.079Z,97.00
2019-04-06T02:45:44.190Z,97.20
2019-04-06T02:49:51.412Z,97.30
2019-04-06T02:53:58.632Z,97.30
2019-04-06T02:58:06.300Z,97.30
2019-04-06T03:02:13.615Z,97.30
2019-04-06T03:06:21.076Z,97.30
2019-04-06T03:10:28.154Z,97.40
2019-04-06T03:14:35.278Z,97.40
2019-04-06T03:18:42.847Z,97.60
2019-04-06T03:22:50.131Z,97.70
2019-04-06T03:27:02.086Z,97.60
2019-04-06T03:31:06.192Z,97.70
2019-04-06T03:35:13.438Z,97.80
2019-04-06T03:39:20.573Z,97.80
2019-04-06T03:43:27.911Z,97.90
2019-04-06T03:47:35.211Z,97.80
2019-04-06T03:51:42.198Z,97.90
2019-04-06T03:55:49.373Z,98.10
2019-04-06T03:59:56.542Z,98.30
2019-04-06T04:04:03.840Z,98.30
2019-04-06T04:08:11.395Z,98.50
2019-04-06T04:12:18.504Z,98.80
2019-04-06T04:16:25.645Z,98.90
2019-04-06T04:20:32.857Z,98.90
2019-04-06T04:24:39.971Z,98.90
2019-04-06T04:28:47.394Z,99.00
2019-04-06T04:32:54.562Z,99.10
2019-04-06T04:37:01.640Z,99.20
2019-04-06T04:41:08.976Z,99.20
2019-04-06T04:45:16.115Z,99.20
2019-04-06T04:49:23.133Z,99.00
2019-04-06T04:53:30.474Z,98.80
2019-04-06T04:57:41.229Z,98.70
2019-04-06T05:01:46.524Z,98.50
2019-04-06T05:05:53.595Z,98.40
2019-04-06T05:10:00.698Z,98.60
2019-04-06T05:14:31.607Z,98.60
2019-04-06T05:18:40.350Z,98.50
2019-04-06T05:22:47.490Z,98.40
2019-04-06T05:26:54.720Z,98.40
2019-04-06T05:31:01.774Z,98.50
2019-04-06T05:35:09.160Z,98.60
2019-04-06T05:39:16.304Z,98.60
2019-04-06T05:43:23.470Z,98.60
2019-04-06T05:47:30.682Z,98.60
2019-04-06T05:51:37.798Z,98.60
2019-04-06T05:55:44.863Z,98.70
2019-04-06T05:59:51.977Z,98.60
2019-04-06T06:03:58.966Z,98.50
2019-04-06T06:08:06.068Z,98.40
2019-04-06T06:12:14.031Z,98.20
2019-04-06T06:16:21.162Z,97.80
2019-04-06T06:20:28.280Z,97.70
2019-04-06T06:24:35.502Z,97.60
2019-04-06T06:28:42.779Z,97.50
2019-04-06T06:32:49.956Z,97.30
2019-04-06T06:36:57.227Z,96.90
2019-04-06T06:41:04.850Z,96.60
2019-04-06T06:45:12.633Z,96.10
2019-04-06T06:49:19.802Z,95.50
2019-04-06T06:53:27.020Z,95.40
2019-04-06T06:57:34.272Z,95.10
2019-04-06T07:01:41.421Z,94.60
2019-04-06T07:05:48.709Z,94.70
2019-04-06T07:10:04.402Z,94.50
2019-04-06T07:14:05.031Z,93.70
2019-04-06T07:18:12.312Z,93.00
2019-04-06T07:22:19.347Z,92.30
2019-04-06T07:26:26.629Z,92.60
2019-04-06T07:30:34.009Z,92.80
2019-04-06T07:34:40.998Z,93.10
2019-04-06T07:38:48.232Z,92.90
2019-04-06T07:42:55.338Z,92.20
2019-04-06T07:47:02.321Z,92.10
2019-04-06T07:51:09.304Z,91.90
2019-04-06T07:55:16.626Z,91.10
2019-04-06T07:59:23.790Z,89.80
2019-04-06T08:03:32.883Z,87.20
2019-04-06T08:07:39.975Z,85.40
2019-04-06T08:11:47.079Z,83.60
2019-04-06T08:15:54.384Z,83.00
2019-04-06T08:20:03.758Z,85.80
2019-04-06T08:24:11.239Z,82.70
2019-04-06T08:28:18.684Z,78.20
2019-04-06T08:32:27.063Z,75.70
2019-04-06T08:36:34.231Z,75.30
2019-04-06T08:40:41.288Z,71.50
2019-04-06T08:44:48.607Z,69.50
2019-04-06T08:48:55.700Z,69.40
2019-04-06T08:53:03.228Z,70.60
2019-04-06T08:57:12.405Z,70.30
2019-04-06T09:01:19.555Z,68.10
2019-04-06T09:05:27.536Z,68.30
2019-04-06T09:09:34.713Z,62.40
2019-04-06T09:13:41.793Z,61.00
2019-04-06T09:17:48.922Z,62.80
2019-04-06T09:21:56.258Z,64.00
2019-04-06T09:26:04.001Z,63.40
2019-04-06T09:30:11.834Z,60.40
2019-04-06T09:34:20.992Z,61.50
2019-04-06T09:38:28.612Z,61.20
2019-04-06T09:42:35.922Z,61.00
2019-04-06T09:46:59.722Z,60.40
2019-04-06T09:51:17.479Z,58.70
2019-04-06T09:55:35.731Z,57.80
2019-04-06T09:59:53.853Z,56.30
2019-04-06T10:04:11.500Z,54.70
2019-04-06T10:08:23.667Z,53.40
2019-04-06T10:12:47.692Z,52.90
2019-04-06T10:16:56.872Z,51.60
2019-04-06T10:21:22.976Z,51.20
2019-04-06T10:25:34.863Z,51.00
2019-04-06T10:29:50.298Z,50.60
2019-04-06T10:34:02.327Z,51.80
2019-04-06T10:38:18.227Z,50.90
2019-04-06T10:42:29.300Z,51.40
2019-04-06T10:46:49.933Z,52.00
2019-04-06T10:50:59.058Z,51.50
2019-04-06T10:55:11.136Z,51.00
2019-04-06T10:59:25.945Z,50.80
2019-04-06T11:03:37.938Z,49.80
2019-04-06T11:07:46.947Z,49.70
2019-04-06T11:12:11.301Z,49.60
2019-04-06T11:16:30.545Z,48.50
2019-04-06T11:20:42.701Z,48.20
2019-04-06T11:24:51.875Z,48.40
2019-04-06T11:29:06.546Z,48.50
2019-04-06T11:33:32.267Z,46.90
2019-04-06T11:37:52.860Z,46.60
2019-04-06T11:42:13.110Z,47.70
2019-04-06T11:46:23.193Z,48.40
2019-04-06T11:50:41.045Z,48.80
2019-04-06T11:54:52.883Z,48.90
2019-04-06T11:59:10.507Z,48.30
2019-04-06T12:03:35.789Z,47.30
2019-04-06T12:07:59.693Z,47.50
2019-04-06T12:12:15.142Z,46.30
2019-04-06T12:16:30.016Z,44.80
2019-04-06T12:20:38.998Z,44.80
2019-04-06T12:25:04.687Z,49.90
2019-04-06T12:29:30.763Z,52.00
2019-04-06T12:33:56.054Z,54.00
2019-04-06T12:38:07.784Z,54.40
2019-04-06T12:42:22.806Z,55.00
2019-04-06T12:46:48.565Z,55.40
2019-04-06T12:50:57.710Z,55.10
2019-04-06T12:55:23.299Z,54.30
2019-04-06T12:59:35.234Z,53.30
2019-04-06T13:03:46.263Z,54.00
2019-04-06T13:08:11.785Z,52.70
2019-04-06T13:12:24.013Z,50.70
2019-04-06T13:16:36.527Z,50.50
2019-04-06T13:20:45.498Z,49.20
2019-04-06T13:24:54.936Z,49.40
2019-04-06T13:29:15.722Z,49.80
2019-04-06T13:33:33.688Z,49.20
2019-04-06T13:37:54.738Z,48.90
2019-04-06T13:42:18.380Z,45.70
2019-04-06T13:46:45.345Z,45.90
2019-04-06T13:50:54.303Z,45.10
2019-04-06T13:55:08.935Z,44.40
2019-04-06T13:59:18.130Z,40.30
2019-04-06T14:03:46.618Z,39.30
2019-04-06T14:08:13.501Z,39.80
2019-04-06T14:12:25.094Z,39.30
2019-04-06T14:16:34.452Z,38.60
2019-04-06T14:20:46.500Z,39.10
2019-04-06T14:25:12.096Z,38.20
2019-04-06T14:29:37.113Z,39.20
2019-04-06T14:33:58.305Z,38.70
2019-04-06T14:38:13.303Z,38.50
2019-04-06T14:42:28.558Z,39.70
2019-04-06T14:46:41.902Z,39.80
2019-04-06T14:50:54.035Z,39.30
2019-04-06T14:55:05.691Z,37.70
2019-04-06T14:59:23.999Z,37.20
2019-04-06T15:03:36.689Z,38.10
2019-04-06T15:07:45.843Z,35.80
2019-04-06T15:11:57.333Z,35.00
2019-04-06T15:16:15.557Z,36.10
2019-04-06T15:20:27.689Z,35.70
2019-04-06T15:24:39.358Z,36.60
2019-04-06T15:28:53.000Z,36.20
2019-04-06T15:33:02.081Z,36.10
2019-04-06T15:37:11.255Z,35.80
2019-04-06T15:41:20.525Z,35.50
2019-04-06T15:45:29.579Z,35.20
2019-04-06T15:49:38.636Z,34.80
2019-04-06T15:53:53.468Z,35.10
2019-04-06T15:58:05.411Z,36.60
2019-04-06T16:02:17.497Z,36.30
2019-04-06T16:06:29.315Z,36.50
2019-04-06T16:10:41.086Z,36.30
2019-04-06T16:14:50.165Z,35.70
2019-04-06T16:18:59.198Z,36.40
2019-04-06T16:23:25.895Z,38.10
2019-04-06T16:27:40.734Z,39.00
2019-04-06T16:32:12.443Z,40.30
2019-04-06T16:36:35.193Z,41.30
2019-04-06T16:40:44.171Z,41.30
2019-04-06T16:44:53.176Z,41.20
2019-04-06T16:49:18.582Z,41.10
2019-04-06T16:53:27.903Z,41.10
2019-04-06T16:57:40.041Z,41.30
2019-04-06T17:01:55.207Z,41.40
2019-04-06T17:06:16.031Z,41.70
2019-04-06T17:10:39.826Z,42.10
2019-04-06T17:14:51.941Z,42.10
2019-04-06T17:19:03.949Z,42.10
2019-04-06T17:23:18.807Z,42.30
2019-04-06T17:27:28.025Z,42.30
2019-04-06T17:31:40.312Z,42.40
2019-04-06T17:36:01.633Z,42.80
2019-04-06T17:40:19.895Z,43.40
2019-04-06T17:44:40.761Z,44.00
2019-04-06T17:49:06.647Z,44.80
2019-04-06T17:53:18.412Z,45.80
2019-04-06T17:57:33.661Z,46.30
2019-04-06T18:01:48.797Z,46.60
2019-04-06T18:06:09.933Z,46.80
2019-04-06T18:10:27.875Z,47.30
2019-04-06T18:14:35.203Z,47.70
2019-04-06T18:18:42.270Z,48.00
2019-04-06T18:22:49.341Z,48.30
2019-04-06T18:26:56.530Z,48.70
2019-04-06T18:31:05.824Z,49.00
2019-04-06T18:35:13.061Z,49.30
2019-04-06T18:39:21.536Z,49.60
2019-04-06T18:43:28.593Z,50.00
2019-04-06T18:47:35.719Z,50.00
2019-04-06T18:51:42.770Z,50.20
2019-04-06T18:55:49.766Z,50.40
2019-04-06T18:59:57.145Z,50.70
2019-04-06T19:04:04.343Z,51.10
2019-04-06T19:08:12.020Z,51.70
2019-04-06T19:12:19.293Z,52.00
2019-04-06T19:16:26.605Z,52.20
2019-04-06T19:20:33.793Z,52.50
2019-04-06T19:24:40.912Z,53.10
2019-04-06T19:28:48.173Z,54.20
2019-04-06T19:32:55.299Z,55.00
2019-04-06T19:37:02.808Z,55.90
2019-04-06T19:41:10.248Z,56.70
2019-04-06T19:45:17.405Z,57.40
2019-04-06T19:49:25.227Z,58.20
2019-04-06T19:53:32.351Z,58.70
2019-04-06T19:57:39.522Z,59.40
2019-04-06T20:01:47.080Z,59.90
2019-04-06T20:05:54.209Z,60.50
2019-04-06T20:10:03.537Z,60.90
2019-04-06T20:14:11.010Z,61.60
2019-04-06T20:18:18.132Z,61.70
2019-04-06T20:22:25.176Z,62.00
2019-04-06T20:26:32.449Z,62.60
2019-04-06T20:30:39.764Z,63.20
2019-04-06T20:34:47.092Z,63.50
2019-04-06T20:38:54.863Z,63.90
2019-04-06T20:43:03.028Z,64.10
2019-04-06T20:47:11.481Z,64.60
2019-04-06T20:51:18.955Z,65.20
2019-04-06T20:55:26.449Z,65.60
2019-04-06T20:59:33.537Z,66.00
2019-04-06T21:03:40.565Z,66.70
2019-04-06T21:07:47.665Z,67.30
2019-04-06T21:11:54.775Z,68.00
2019-04-06T21:16:02.213Z,68.40
2019-04-06T21:20:09.571Z,68.80
2019-04-06T21:24:16.902Z,69.20
2019-04-06T21:28:24.912Z,69.70
2019-04-06T21:32:32.624Z,69.90
2019-04-06T21:36:39.719Z,70.50
2019-04-06T21:40:46.882Z,70.60
2019-04-06T21:44:54.510Z,71.90
2019-04-06T21:49:04.530Z,71.70
2019-04-06T21:53:12.145Z,72.00
2019-04-06T21:57:20.185Z,72.20
2019-04-06T22:01:28.106Z,72.50
2019-04-06T22:05:36.241Z,73.00
2019-04-06T22:09:43.949Z,73.40
2019-04-06T22:13:51.280Z,73.70
2019-04-06T22:17:58.544Z,74.70
2019-04-06T22:22:06.393Z,74.70
2019-04-06T22:26:14.465Z,75.00
2019-04-06T22:30:21.604Z,75.40
2019-04-06T22:34:36.682Z,75.70
2019-04-06T22:38:37.901Z,75.90
2019-04-06T22:42:45.210Z,76.00
2019-04-06T22:46:52.368Z,76.10
2019-04-06T22:51:00.112Z,76.40
2019-04-06T22:55:08.496Z,76.90
2019-04-06T22:59:15.607Z,77.40
2019-04-06T23:03:41.285Z,77.90
2019-04-06T23:07:48.770Z,78.20
2019-04-06T23:11:56.877Z,78.70
2019-04-06T23:16:04.704Z,79.20
2019-04-06T23:20:13.265Z,79.20
2019-04-06T23:24:21.565Z,79.80
2019-04-06T23:28:29.542Z,80.00
2019-04-06T23:32:37.419Z,80.60
2019-04-06T23:36:44.775Z,81.20
2019-04-06T23:40:52.426Z,81.70
2019-04-06T23:44:59.759Z,82.10
2019-04-06T23:49:07.719Z,82.60
2019-04-06T23:53:15.135Z,82.90
2019-04-06T23:57:23.184Z,83.00
